createdAt,value
2017-10-20T00:00:11.718Z,0
2017-10-20T00:01:19.809Z,0
2017-10-20T00:02:27.893Z,0
2017-10-20T00:03:35.980Z,0
2017-10-20T00:04:44.068Z,0
2017-10-20T00:05:52.156Z,0
2017-10-20T00:07:00.259Z,0
2017-10-20T00:08:08.327Z,0
2017-10-20T00:09:16.424Z,0
2017-10-20T00:10:24.518Z,0
2017-10-20T00:11:32.599Z,0
2017-10-20T00:12:40.686Z,0
2017-10-20T00:13:48.775Z,0
2017-10-20T00:14:56.862Z,0
2017-10-20T00:16:04.953Z,0
2017-10-20T00:17:13.041Z,0
2017-10-20T00:18:21.132Z,0
2017-10-20T00:19:29.216Z,0
2017-10-20T00:20:37.304Z,0
2017-10-20T00:21:45.750Z,0
2017-10-20T00:22:53.479Z,0
2017-10-20T00:24:01.567Z,0
2017-10-20T00:25:09.654Z,0
2017-10-20T00:26:17.742Z,0
2017-10-20T00:27:25.830Z,0
2017-10-20T00:28:33.923Z,0
2017-10-20T00:29:42.007Z,0
2017-10-20T00:30:50.111Z,0
2017-10-20T00:31:58.187Z,0
2017-10-20T00:33:06.273Z,0
2017-10-20T00:34:14.363Z,0
2017-10-20T00:35:22.458Z,0
2017-10-20T00:36:30.539Z,0
2017-10-20T00:37:38.626Z,0
2017-10-20T00:38:46.740Z,0
2017-10-20T00:39:54.802Z,0
2017-10-20T00:41:02.908Z,0
2017-10-20T00:42:10.989Z,0
2017-10-20T00:43:19.065Z,0
2017-10-20T00:44:27.154Z,0
2017-10-20T00:45:35.247Z,0
2017-10-20T00:46:43.334Z,0
2017-10-20T00:47:51.424Z,0
2017-10-20T00:48:59.512Z,0
2017-10-20T00:50:07.596Z,0
2017-10-20T00:51:15.685Z,0
2017-10-20T00:52:23.780Z,0
2017-10-20T00:53:31.863Z,0
2017-10-20T00:54:39.958Z,0
2017-10-20T00:55:48.047Z,0
2017-10-20T00:56:56.134Z,0
2017-10-20T00:58:04.220Z,0
2017-10-20T00:59:12.309Z,0
2017-10-20T01:00:20.400Z,0
2017-10-20T01:01:28.484Z,0
2017-10-20T01:02:36.573Z,0
2017-10-20T01:03:44.661Z,0
2017-10-20T01:04:52.763Z,0
2017-10-20T01:06:00.839Z,0
2017-10-20T01:07:08.925Z,0
2017-10-20T01:08:17.014Z,0
2017-10-20T01:09:25.108Z,0
2017-10-20T01:10:33.199Z,0
2017-10-20T01:11:41.288Z,0
2017-10-20T01:12:49.374Z,0
2017-10-20T01:13:57.467Z,0
2017-10-20T01:15:05.550Z,0
2017-10-20T01:16:13.636Z,0
2017-10-20T01:17:21.723Z,0
2017-10-20T01:18:29.815Z,0
2017-10-20T01:19:37.906Z,0
2017-10-20T01:20:45.987Z,0
2017-10-20T01:21:54.092Z,0
2017-10-20T01:23:02.175Z,0
2017-10-20T01:24:10.260Z,0
2017-10-20T01:25:18.359Z,0
2017-10-20T01:26:26.455Z,0
2017-10-20T01:27:34.525Z,0
2017-10-20T01:28:42.617Z,0
2017-10-20T01:29:50.703Z,0
2017-10-20T01:30:58.789Z,0
2017-10-20T01:32:06.895Z,0
2017-10-20T01:33:14.998Z,0
2017-10-20T01:34:23.103Z,0
2017-10-20T01:35:31.182Z,0
2017-10-20T01:36:39.260Z,0
2017-10-20T01:37:47.351Z,0
2017-10-20T01:38:55.436Z,0
2017-10-20T01:40:03.530Z,0
2017-10-20T01:41:11.616Z,0
2017-10-20T01:42:19.705Z,0
2017-10-20T01:43:27.800Z,0
2017-10-20T01:44:35.883Z,0
2017-10-20T01:45:43.972Z,0
2017-10-20T01:46:52.057Z,0
2017-10-20T01:48:00.146Z,0
2017-10-20T01:49:08.243Z,0
2017-10-20T01:50:16.330Z,0
2017-10-20T01:51:24.418Z,0
2017-10-20T01:52:32.506Z,0
2017-10-20T01:53:40.592Z,0
2017-10-20T01:54:48.700Z,0
2017-10-20T01:55:56.769Z,0
2017-10-20T01:57:04.857Z,0
2017-10-20T01:58:12.950Z,0
2017-10-20T01:59:21.045Z,0
2017-10-20T02:00:29.141Z,0
2017-10-20T02:01:37.208Z,0
2017-10-20T02:02:45.297Z,0
2017-10-20T02:03:53.386Z,0
2017-10-20T02:05:01.572Z,0
2017-10-20T02:06:09.560Z,0
2017-10-20T02:07:17.647Z,0
2017-10-20T02:08:25.742Z,0
2017-10-20T02:09:33.824Z,0
2017-10-20T02:10:41.913Z,0
2017-10-20T02:11:50.000Z,0
2017-10-20T02:12:58.106Z,0
2017-10-20T02:14:06.173Z,0
2017-10-20T02:15:14.271Z,0
2017-10-20T02:16:22.421Z,0
2017-10-20T02:17:30.504Z,0
2017-10-20T02:18:38.594Z,0
2017-10-20T02:19:46.682Z,0
2017-10-20T02:20:54.769Z,0
2017-10-20T02:22:02.855Z,0
2017-10-20T02:23:10.946Z,0
2017-10-20T02:24:19.054Z,0
2017-10-20T02:25:27.121Z,0
2017-10-20T02:26:35.227Z,0
2017-10-20T02:27:43.294Z,0
2017-10-20T02:28:51.384Z,0
2017-10-20T02:29:59.475Z,0
2017-10-20T02:31:07.575Z,0
2017-10-20T02:32:15.646Z,0
2017-10-20T02:33:23.736Z,0
2017-10-20T02:34:31.821Z,0
2017-10-20T02:35:39.911Z,0
2017-10-20T02:36:48.012Z,0
2017-10-20T02:37:56.088Z,0
2017-10-20T02:39:04.173Z,0
2017-10-20T02:40:12.264Z,0
2017-10-20T02:41:20.349Z,0
2017-10-20T02:42:28.447Z,0
2017-10-20T02:43:36.543Z,0
2017-10-20T02:44:44.633Z,0
2017-10-20T02:45:52.731Z,0
2017-10-20T02:47:00.808Z,0
2017-10-20T02:48:08.898Z,0
2017-10-20T02:49:17.002Z,0
2017-10-20T02:50:25.087Z,0
2017-10-20T02:51:33.168Z,0
2017-10-20T02:52:41.386Z,0
2017-10-20T02:53:49.476Z,0
2017-10-20T02:54:57.563Z,0
2017-10-20T02:56:05.650Z,0
2017-10-20T02:57:13.738Z,0
2017-10-20T02:58:21.826Z,0
2017-10-20T02:59:29.914Z,0
2017-10-20T03:00:38.007Z,0
2017-10-20T03:01:46.101Z,0
2017-10-20T03:02:54.515Z,0
2017-10-20T03:04:02.602Z,0
2017-10-20T03:05:10.690Z,0
2017-10-20T03:06:18.785Z,0
2017-10-20T03:07:26.865Z,0
2017-10-20T03:08:34.954Z,0
2017-10-20T03:09:43.042Z,0
2017-10-20T03:10:51.127Z,0
2017-10-20T03:11:59.215Z,0
2017-10-20T03:13:07.304Z,0
2017-10-20T03:14:15.390Z,0
2017-10-20T03:15:23.477Z,0
2017-10-20T03:16:31.568Z,0
2017-10-20T03:17:39.657Z,0
2017-10-20T03:18:47.742Z,0
2017-10-20T03:19:55.827Z,0
2017-10-20T03:21:03.917Z,0
2017-10-20T03:22:12.006Z,0
2017-10-20T03:23:20.117Z,0
2017-10-20T03:24:28.179Z,0
2017-10-20T03:25:36.279Z,0
2017-10-20T03:26:44.356Z,0
2017-10-20T03:27:52.443Z,0
2017-10-20T03:29:00.531Z,0
2017-10-20T03:30:08.619Z,0
2017-10-20T03:31:16.713Z,0
2017-10-20T03:32:24.793Z,0
2017-10-20T03:33:32.881Z,0
2017-10-20T03:34:40.968Z,0
2017-10-20T03:35:49.055Z,0
2017-10-20T03:36:57.148Z,0
2017-10-20T03:38:05.304Z,0
2017-10-20T03:39:13.315Z,0
2017-10-20T03:40:21.403Z,0
2017-10-20T03:41:29.493Z,0
2017-10-20T03:42:37.582Z,0
2017-10-20T03:43:45.667Z,0
2017-10-20T03:44:53.757Z,0
2017-10-20T03:46:01.845Z,0
2017-10-20T03:47:09.948Z,0
2017-10-20T03:48:18.022Z,0
2017-10-20T03:49:26.412Z,0
2017-10-20T03:50:34.191Z,0
2017-10-20T03:51:42.281Z,0
2017-10-20T03:52:50.368Z,0
2017-10-20T03:53:58.457Z,0
2017-10-20T03:55:06.542Z,0
2017-10-20T03:56:14.629Z,0
2017-10-20T03:57:22.717Z,0
2017-10-20T03:58:30.803Z,0
2017-10-20T03:59:38.890Z,0
2017-10-20T04:00:47.034Z,0
2017-10-20T04:01:55.073Z,0
2017-10-20T04:03:03.161Z,0
2017-10-20T04:04:11.265Z,0
2017-10-20T04:05:19.335Z,0
2017-10-20T04:06:27.422Z,0
2017-10-20T04:07:35.508Z,0
2017-10-20T04:08:43.601Z,0
2017-10-20T04:09:51.682Z,0
2017-10-20T04:10:59.769Z,0
2017-10-20T04:12:07.860Z,0
2017-10-20T04:13:15.945Z,0
2017-10-20T04:14:24.037Z,0
2017-10-20T04:15:32.123Z,0
2017-10-20T04:16:40.206Z,0
2017-10-20T04:17:48.478Z,0
2017-10-20T04:18:56.566Z,0
2017-10-20T04:20:04.654Z,0
2017-10-20T04:21:12.740Z,0
2017-10-20T04:22:20.830Z,0
2017-10-20T04:23:28.918Z,0
2017-10-20T04:24:37.000Z,0
2017-10-20T04:25:45.088Z,0
2017-10-20T04:26:53.176Z,0
2017-10-20T04:28:01.264Z,0
2017-10-20T04:29:09.353Z,0
2017-10-20T04:30:17.437Z,0
2017-10-20T04:31:25.525Z,0
2017-10-20T04:32:33.617Z,0
2017-10-20T04:33:41.717Z,0
2017-10-20T04:34:49.791Z,0
2017-10-20T04:35:57.887Z,0
2017-10-20T04:37:06.198Z,0
2017-10-20T04:38:14.061Z,0
2017-10-20T04:39:22.150Z,0
2017-10-20T04:40:30.235Z,0
2017-10-20T04:41:38.336Z,0
2017-10-20T04:42:46.406Z,0
2017-10-20T04:43:54.497Z,0
2017-10-20T04:45:02.581Z,0
2017-10-20T04:46:10.666Z,0
2017-10-20T04:47:18.762Z,0
2017-10-20T04:48:26.841Z,0
2017-10-20T04:49:34.929Z,0
2017-10-20T04:50:43.021Z,0
2017-10-20T04:51:51.114Z,0
2017-10-20T04:52:59.198Z,0
2017-10-20T04:54:07.296Z,0
2017-10-20T04:55:15.382Z,0
2017-10-20T04:56:23.469Z,0
2017-10-20T04:57:31.557Z,0
2017-10-20T04:58:39.643Z,0
2017-10-20T04:59:47.730Z,0
2017-10-20T05:00:55.817Z,0
2017-10-20T05:02:03.902Z,0
2017-10-20T05:03:11.989Z,0
2017-10-20T05:04:20.081Z,0
2017-10-20T05:05:28.165Z,0
2017-10-20T05:06:36.250Z,0
2017-10-20T05:07:44.336Z,0
2017-10-20T05:08:52.423Z,0
2017-10-20T05:10:00.793Z,0
2017-10-20T05:11:08.602Z,0
2017-10-20T05:12:16.685Z,0
2017-10-20T05:13:24.774Z,0
2017-10-20T05:14:32.857Z,0
2017-10-20T05:15:40.955Z,0
2017-10-20T05:16:49.032Z,0
2017-10-20T05:17:57.118Z,0
2017-10-20T05:19:05.206Z,0
2017-10-20T05:20:13.297Z,0
2017-10-20T05:21:21.379Z,0
2017-10-20T05:22:29.473Z,0
2017-10-20T05:23:37.561Z,0
2017-10-20T05:24:45.654Z,0
2017-10-20T05:25:53.742Z,0
2017-10-20T05:27:01.829Z,0
2017-10-20T05:28:09.935Z,0
2017-10-20T05:29:18.013Z,0
2017-10-20T05:30:26.363Z,0
2017-10-20T05:31:34.552Z,0
2017-10-20T05:32:42.636Z,0
2017-10-20T05:33:50.723Z,0
2017-10-20T05:34:58.814Z,0
2017-10-20T05:36:06.895Z,0
2017-10-20T05:37:14.983Z,0
2017-10-20T05:38:23.076Z,0
2017-10-20T05:39:31.157Z,0
2017-10-20T05:40:39.247Z,0
2017-10-20T05:41:47.329Z,0
2017-10-20T05:42:55.648Z,0
2017-10-20T05:44:03.731Z,0
2017-10-20T05:45:11.831Z,0
2017-10-20T05:46:19.908Z,0
2017-10-20T05:47:27.991Z,0
2017-10-20T05:48:36.091Z,0
2017-10-20T05:49:44.165Z,0
2017-10-20T05:50:52.249Z,0
2017-10-20T05:52:00.337Z,0
2017-10-20T05:53:08.427Z,0
2017-10-20T05:54:16.514Z,0
2017-10-20T05:55:24.597Z,0
2017-10-20T05:56:32.684Z,4
2017-10-20T05:57:40.770Z,0
2017-10-20T05:58:48.867Z,0
2017-10-20T05:59:56.953Z,0
2017-10-20T06:01:05.045Z,4
2017-10-20T06:02:13.125Z,0
2017-10-20T06:03:21.219Z,0
2017-10-20T06:04:29.300Z,4
2017-10-20T06:05:37.384Z,0
2017-10-20T06:06:45.472Z,4
2017-10-20T06:07:53.582Z,4
2017-10-20T06:09:01.663Z,4
2017-10-20T06:10:09.755Z,4
2017-10-20T06:11:17.839Z,4
2017-10-20T06:12:25.946Z,4
2017-10-20T06:13:34.012Z,4
2017-10-20T06:14:42.105Z,4
2017-10-20T06:15:50.250Z,4
2017-10-20T06:16:58.290Z,8
2017-10-20T06:18:06.377Z,4
2017-10-20T06:19:14.468Z,8
2017-10-20T06:20:22.554Z,8
2017-10-20T06:21:30.647Z,4
2017-10-20T06:22:38.726Z,8
2017-10-20T06:23:46.812Z,8
2017-10-20T06:24:54.920Z,8
2017-10-20T06:26:03.000Z,8
2017-10-20T06:27:11.088Z,8
2017-10-20T06:28:19.170Z,12
2017-10-20T06:29:27.255Z,12
2017-10-20T06:30:35.357Z,16
2017-10-20T06:31:43.428Z,20
2017-10-20T06:32:51.513Z,20
2017-10-20T06:33:59.599Z,16
2017-10-20T06:35:07.687Z,12
2017-10-20T06:36:15.783Z,12
2017-10-20T06:37:23.866Z,16
2017-10-20T06:38:31.948Z,16
2017-10-20T06:39:40.033Z,20
2017-10-20T06:40:48.125Z,20
2017-10-20T06:41:56.225Z,16
2017-10-20T06:43:04.291Z,16
2017-10-20T06:44:12.378Z,16
2017-10-20T06:45:20.464Z,12
2017-10-20T06:46:28.552Z,12
2017-10-20T06:47:36.638Z,12
2017-10-20T06:48:44.723Z,12
2017-10-20T06:49:52.809Z,8
2017-10-20T06:51:00.897Z,12
2017-10-20T06:52:08.984Z,8
2017-10-20T06:53:17.075Z,4
2017-10-20T06:54:25.178Z,8
2017-10-20T06:55:33.245Z,4
2017-10-20T06:56:41.331Z,4
2017-10-20T06:57:49.417Z,4
2017-10-20T06:58:57.514Z,8
2017-10-20T07:00:05.590Z,8
2017-10-20T07:01:13.686Z,4
2017-10-20T07:02:21.773Z,8
2017-10-20T07:03:29.858Z,8
2017-10-20T07:04:37.949Z,8
2017-10-20T07:05:46.057Z,8
2017-10-20T07:06:54.120Z,8
2017-10-20T07:08:02.221Z,4
2017-10-20T07:09:10.305Z,4
2017-10-20T07:10:18.388Z,8
2017-10-20T07:11:26.474Z,8
2017-10-20T07:12:34.563Z,4
2017-10-20T07:13:42.657Z,4
2017-10-20T07:14:50.734Z,8
2017-10-20T07:15:58.820Z,8
2017-10-20T07:17:06.925Z,8
2017-10-20T07:18:14.992Z,8
2017-10-20T07:19:23.084Z,8
2017-10-20T07:20:31.167Z,4
2017-10-20T07:21:39.258Z,8
2017-10-20T07:22:47.336Z,8
2017-10-20T07:23:55.424Z,4
2017-10-20T07:25:03.509Z,8
2017-10-20T07:26:11.605Z,8
2017-10-20T07:27:19.687Z,8
2017-10-20T07:28:27.776Z,4
2017-10-20T07:29:35.860Z,4
2017-10-20T07:30:43.953Z,8
2017-10-20T07:31:52.035Z,8
2017-10-20T07:33:00.126Z,8
2017-10-20T07:34:08.205Z,8
2017-10-20T07:35:16.294Z,8
2017-10-20T07:36:24.378Z,12
2017-10-20T07:37:32.463Z,8
2017-10-20T07:38:40.551Z,8
2017-10-20T07:39:48.634Z,12
2017-10-20T07:40:56.729Z,12
2017-10-20T07:42:04.816Z,8
2017-10-20T07:43:12.908Z,12
2017-10-20T07:44:20.997Z,12
2017-10-20T07:45:29.092Z,12
2017-10-20T07:46:37.160Z,12
2017-10-20T07:47:45.246Z,12
2017-10-20T07:48:53.623Z,12
2017-10-20T07:50:01.719Z,12
2017-10-20T07:51:09.796Z,12
2017-10-20T07:52:17.902Z,12
2017-10-20T07:53:25.969Z,12
2017-10-20T07:54:34.057Z,12
2017-10-20T07:55:42.141Z,12
2017-10-20T07:56:50.226Z,12
2017-10-20T07:57:58.317Z,8
2017-10-20T07:59:06.399Z,12
2017-10-20T08:00:14.484Z,12
2017-10-20T08:01:22.605Z,12
2017-10-20T08:02:30.694Z,12
2017-10-20T08:03:38.776Z,16
2017-10-20T08:04:46.862Z,12
2017-10-20T08:05:54.953Z,16
2017-10-20T08:07:03.034Z,12
2017-10-20T08:08:11.125Z,16
2017-10-20T08:09:19.223Z,16
2017-10-20T08:10:27.296Z,16
2017-10-20T08:11:35.378Z,12
2017-10-20T08:12:43.465Z,12
2017-10-20T08:13:51.561Z,16
2017-10-20T08:14:59.638Z,12
2017-10-20T08:16:07.726Z,12
2017-10-20T08:17:15.812Z,12
2017-10-20T08:18:23.906Z,16
2017-10-20T08:19:31.990Z,16
2017-10-20T08:20:40.080Z,16
2017-10-20T08:21:48.163Z,16
2017-10-20T08:22:56.249Z,12
2017-10-20T08:24:04.351Z,16
2017-10-20T08:25:12.420Z,12
2017-10-20T08:26:20.505Z,16
2017-10-20T08:27:28.603Z,12
2017-10-20T08:28:36.684Z,16
2017-10-20T08:29:44.769Z,20
2017-10-20T08:30:52.878Z,20
2017-10-20T08:32:00.941Z,20
2017-10-20T08:33:09.315Z,20
2017-10-20T08:34:17.418Z,20
2017-10-20T08:35:25.484Z,20
2017-10-20T08:36:33.571Z,20
2017-10-20T08:37:41.656Z,24
2017-10-20T08:38:49.743Z,20
2017-10-20T08:39:57.832Z,20
2017-10-20T08:41:05.921Z,24
2017-10-20T08:42:14.009Z,24
2017-10-20T08:43:22.088Z,36
2017-10-20T08:44:30.189Z,32
2017-10-20T08:45:38.263Z,20
2017-10-20T08:46:46.360Z,20
2017-10-20T08:47:54.448Z,24
2017-10-20T08:49:02.531Z,24
2017-10-20T08:50:10.618Z,28
2017-10-20T08:51:18.701Z,28
2017-10-20T08:52:26.786Z,36
2017-10-20T08:53:34.871Z,44
2017-10-20T08:54:42.956Z,36
2017-10-20T08:55:51.044Z,24
2017-10-20T08:56:59.134Z,24
2017-10-20T08:58:07.320Z,40
2017-10-20T08:59:15.301Z,40
2017-10-20T09:00:23.387Z,36
2017-10-20T09:01:31.474Z,36
2017-10-20T09:02:39.594Z,20
2017-10-20T09:03:47.645Z,40
2017-10-20T09:04:55.729Z,36
2017-10-20T09:06:03.816Z,32
2017-10-20T09:07:11.903Z,36
2017-10-20T09:08:19.989Z,36
2017-10-20T09:09:28.095Z,36
2017-10-20T09:10:36.161Z,28
2017-10-20T09:11:45.086Z,40
2017-10-20T09:12:52.348Z,36
2017-10-20T09:14:00.419Z,40
2017-10-20T09:15:08.503Z,36
2017-10-20T09:16:16.588Z,40
2017-10-20T09:17:24.676Z,40
2017-10-20T09:18:32.761Z,40
2017-10-20T09:19:40.847Z,36
2017-10-20T09:20:48.952Z,40
2017-10-20T09:21:57.388Z,36
2017-10-20T09:23:05.479Z,40
2017-10-20T09:24:13.566Z,40
2017-10-20T09:25:21.650Z,40
2017-10-20T09:26:29.763Z,40
2017-10-20T09:27:37.826Z,40
2017-10-20T09:28:45.931Z,40
2017-10-20T09:29:54.017Z,40
2017-10-20T09:31:02.110Z,40
2017-10-20T09:32:10.187Z,40
2017-10-20T09:33:18.274Z,40
2017-10-20T09:34:26.360Z,40
2017-10-20T09:35:34.447Z,40
2017-10-20T09:36:42.533Z,40
2017-10-20T09:37:50.619Z,40
2017-10-20T09:38:58.707Z,40
2017-10-20T09:40:06.795Z,40
2017-10-20T09:41:14.883Z,40
2017-10-20T09:42:22.973Z,40
2017-10-20T09:43:31.052Z,40
2017-10-20T09:44:39.136Z,40
2017-10-20T09:45:47.223Z,40
2017-10-20T09:46:55.312Z,40
2017-10-20T09:48:03.394Z,40
2017-10-20T09:49:11.483Z,40
2017-10-20T09:50:19.567Z,40
2017-10-20T09:51:27.654Z,40
2017-10-20T09:52:35.738Z,40
2017-10-20T09:53:43.825Z,40
2017-10-20T09:54:51.937Z,36
2017-10-20T09:55:59.998Z,40
2017-10-20T09:57:08.089Z,36
2017-10-20T09:58:16.176Z,40
2017-10-20T09:59:24.268Z,40
2017-10-20T10:00:32.355Z,36
2017-10-20T10:01:40.446Z,36
2017-10-20T10:02:48.587Z,40
2017-10-20T10:03:56.614Z,36
2017-10-20T10:05:04.701Z,36
2017-10-20T10:06:12.787Z,40
2017-10-20T10:07:20.871Z,40
2017-10-20T10:08:28.987Z,36
2017-10-20T10:09:37.071Z,36
2017-10-20T10:10:45.155Z,40
2017-10-20T10:11:53.264Z,40
2017-10-20T10:13:01.327Z,40
2017-10-20T10:14:09.414Z,36
2017-10-20T10:15:17.506Z,36
2017-10-20T10:16:25.592Z,36
2017-10-20T10:17:33.686Z,36
2017-10-20T10:18:41.771Z,40
2017-10-20T10:19:49.857Z,36
2017-10-20T10:22:06.037Z,40
2017-10-20T10:23:14.117Z,40
2017-10-20T10:24:22.205Z,36
2017-10-20T10:25:30.291Z,40
2017-10-20T10:26:38.383Z,36
2017-10-20T10:27:46.464Z,32
2017-10-20T10:28:54.551Z,36
2017-10-20T10:30:02.636Z,36
2017-10-20T10:31:10.724Z,36
2017-10-20T10:32:18.809Z,36
2017-10-20T10:33:26.901Z,32
2017-10-20T10:34:34.986Z,36
2017-10-20T10:35:43.074Z,32
2017-10-20T10:36:51.162Z,32
2017-10-20T10:37:59.240Z,32
2017-10-20T10:39:07.329Z,32
2017-10-20T10:40:15.414Z,36
2017-10-20T10:41:23.498Z,36
2017-10-20T10:42:31.618Z,32
2017-10-20T10:43:39.673Z,32
2017-10-20T10:44:47.760Z,36
2017-10-20T10:45:55.845Z,36
2017-10-20T10:47:03.934Z,36
2017-10-20T10:48:12.018Z,32
2017-10-20T10:49:20.103Z,36
2017-10-20T10:50:28.188Z,36
2017-10-20T10:51:36.274Z,36
2017-10-20T10:52:44.365Z,32
2017-10-20T10:53:52.447Z,24
2017-10-20T10:55:00.534Z,32
2017-10-20T10:56:08.622Z,28
2017-10-20T10:57:16.707Z,28
2017-10-20T10:58:24.793Z,20
2017-10-20T10:59:32.881Z,24
2017-10-20T11:00:40.976Z,24
2017-10-20T11:01:49.080Z,20
2017-10-20T11:02:57.152Z,24
2017-10-20T11:04:05.235Z,32
2017-10-20T11:05:13.324Z,24
2017-10-20T11:06:21.448Z,24
2017-10-20T11:07:29.508Z,36
2017-10-20T11:08:37.592Z,32
2017-10-20T11:09:45.677Z,36
2017-10-20T11:10:53.772Z,36
2017-10-20T11:12:01.856Z,28
2017-10-20T11:13:09.941Z,32
2017-10-20T11:14:18.032Z,24
2017-10-20T11:15:26.124Z,28
2017-10-20T11:16:34.209Z,28
2017-10-20T11:17:42.296Z,28
2017-10-20T11:18:50.382Z,28
2017-10-20T11:19:58.468Z,28
2017-10-20T11:21:06.554Z,28
2017-10-20T11:22:14.640Z,32
2017-10-20T11:23:22.727Z,28
2017-10-20T11:24:30.814Z,32
2017-10-20T11:25:38.903Z,32
2017-10-20T11:26:46.992Z,32
2017-10-20T11:27:55.076Z,32
2017-10-20T11:29:03.174Z,32
2017-10-20T11:30:11.251Z,28
2017-10-20T11:31:19.332Z,32
2017-10-20T11:32:27.418Z,32
2017-10-20T11:33:35.505Z,32
2017-10-20T11:34:43.590Z,28
2017-10-20T11:35:51.677Z,28
2017-10-20T11:36:59.763Z,28
2017-10-20T11:38:07.851Z,28
2017-10-20T11:39:15.949Z,28
2017-10-20T11:40:24.038Z,28
2017-10-20T11:41:32.120Z,28
2017-10-20T11:42:40.206Z,28
2017-10-20T11:43:48.293Z,32
2017-10-20T11:44:56.381Z,32
2017-10-20T11:46:04.466Z,28
2017-10-20T11:47:12.553Z,32
2017-10-20T11:48:20.648Z,28
2017-10-20T11:49:28.724Z,32
2017-10-20T11:50:36.810Z,28
2017-10-20T11:51:44.898Z,28
2017-10-20T11:52:53.439Z,28
2017-10-20T11:54:01.070Z,24
2017-10-20T11:55:09.157Z,28
2017-10-20T11:56:17.244Z,24
2017-10-20T11:57:25.332Z,28
2017-10-20T11:58:33.434Z,28
2017-10-20T11:59:41.499Z,28
2017-10-20T12:00:49.586Z,28
2017-10-20T12:01:57.672Z,28
2017-10-20T12:03:05.760Z,24
2017-10-20T12:04:13.846Z,20
2017-10-20T12:05:21.935Z,20
2017-10-20T12:06:30.021Z,20
2017-10-20T12:07:38.112Z,20
2017-10-20T12:08:46.193Z,24
2017-10-20T12:09:54.296Z,24
2017-10-20T12:11:02.363Z,24
2017-10-20T12:12:10.449Z,24
2017-10-20T12:13:18.538Z,32
2017-10-20T12:14:26.623Z,32
2017-10-20T12:15:34.717Z,32
2017-10-20T12:16:42.798Z,28
2017-10-20T12:17:50.882Z,24
2017-10-20T12:18:58.967Z,28
2017-10-20T12:20:07.056Z,24
2017-10-20T12:21:15.141Z,24
2017-10-20T12:22:23.256Z,24
2017-10-20T12:23:31.314Z,20
2017-10-20T12:24:39.401Z,24
2017-10-20T12:25:47.487Z,24
2017-10-20T12:26:55.582Z,28
2017-10-20T12:28:03.678Z,28
2017-10-20T12:29:11.755Z,24
2017-10-20T12:30:19.840Z,28
2017-10-20T12:31:27.927Z,28
2017-10-20T12:32:36.032Z,24
2017-10-20T12:33:44.104Z,24
2017-10-20T12:34:52.193Z,36
2017-10-20T12:36:00.271Z,28
2017-10-20T12:37:08.432Z,28
2017-10-20T12:38:16.520Z,24
2017-10-20T12:39:24.607Z,28
2017-10-20T12:40:32.696Z,24
2017-10-20T12:41:40.783Z,24
2017-10-20T12:42:48.881Z,24
2017-10-20T12:43:56.975Z,24
2017-10-20T12:45:05.043Z,28
2017-10-20T12:46:13.129Z,24
2017-10-20T12:47:21.219Z,24
2017-10-20T12:48:29.301Z,24
2017-10-20T12:49:37.388Z,24
2017-10-20T12:50:45.476Z,24
2017-10-20T12:51:53.559Z,24
2017-10-20T12:53:01.644Z,32
2017-10-20T12:54:09.731Z,32
2017-10-20T12:55:17.839Z,28
2017-10-20T12:56:25.943Z,28
2017-10-20T12:57:34.130Z,28
2017-10-20T12:58:42.218Z,32
2017-10-20T12:59:50.305Z,32
2017-10-20T13:00:58.392Z,32
2017-10-20T13:02:06.479Z,28
2017-10-20T13:03:14.617Z,28
2017-10-20T13:04:22.652Z,28
2017-10-20T13:05:30.737Z,28
2017-10-20T13:06:38.833Z,24
2017-10-20T13:07:46.916Z,24
2017-10-20T13:08:55.001Z,24
2017-10-20T13:10:03.083Z,28
2017-10-20T13:11:11.169Z,28
2017-10-20T13:12:19.255Z,28
2017-10-20T13:13:27.342Z,32
2017-10-20T13:14:35.428Z,32
2017-10-20T13:15:43.619Z,32
2017-10-20T13:16:51.611Z,44
2017-10-20T13:17:59.697Z,28
2017-10-20T13:19:07.784Z,40
2017-10-20T13:20:15.868Z,40
2017-10-20T13:21:23.952Z,28
2017-10-20T13:22:32.039Z,32
2017-10-20T13:23:40.124Z,32
2017-10-20T13:24:48.212Z,44
2017-10-20T13:25:56.588Z,48
2017-10-20T13:27:04.675Z,28
2017-10-20T13:28:12.763Z,24
2017-10-20T13:29:20.850Z,28
2017-10-20T13:30:28.936Z,24
2017-10-20T13:31:37.025Z,24
2017-10-20T13:32:45.125Z,24
2017-10-20T13:33:53.192Z,24
2017-10-20T13:35:01.322Z,20
2017-10-20T13:36:09.369Z,20
2017-10-20T13:37:17.449Z,20
2017-10-20T13:38:25.554Z,20
2017-10-20T13:39:33.625Z,20
2017-10-20T13:40:41.733Z,20
2017-10-20T13:41:49.800Z,20
2017-10-20T13:42:57.901Z,20
2017-10-20T13:44:06.182Z,20
2017-10-20T13:45:14.076Z,20
2017-10-20T13:46:22.142Z,24
2017-10-20T13:47:30.256Z,20
2017-10-20T13:48:38.323Z,16
2017-10-20T13:49:46.409Z,20
2017-10-20T13:50:54.494Z,16
2017-10-20T13:52:02.578Z,16
2017-10-20T13:53:10.672Z,12
2017-10-20T13:54:18.753Z,12
2017-10-20T13:55:26.838Z,16
2017-10-20T13:56:34.926Z,16
2017-10-20T13:57:43.028Z,12
2017-10-20T13:58:51.115Z,16
2017-10-20T13:59:59.216Z,12
2017-10-20T14:01:07.400Z,12
2017-10-20T14:02:15.487Z,8
2017-10-20T14:03:23.572Z,12
2017-10-20T14:04:31.664Z,8
2017-10-20T14:05:39.745Z,12
2017-10-20T14:06:47.836Z,12
2017-10-20T14:07:55.919Z,8
2017-10-20T14:09:04.008Z,8
2017-10-20T14:10:12.095Z,8
2017-10-20T14:11:20.183Z,8
2017-10-20T14:12:28.268Z,8
2017-10-20T14:13:36.354Z,12
2017-10-20T14:14:44.439Z,8
2017-10-20T14:15:52.525Z,12
2017-10-20T14:17:00.612Z,12
2017-10-20T14:18:08.697Z,12
2017-10-20T14:19:16.781Z,8
2017-10-20T14:20:24.868Z,12
2017-10-20T14:21:32.955Z,8
2017-10-20T14:22:41.062Z,12
2017-10-20T14:23:49.128Z,12
2017-10-20T14:24:57.286Z,12
2017-10-20T14:26:05.370Z,12
2017-10-20T14:27:13.457Z,8
2017-10-20T14:28:21.544Z,12
2017-10-20T14:29:29.632Z,8
2017-10-20T14:30:37.719Z,8
2017-10-20T14:31:45.805Z,8
2017-10-20T14:32:53.906Z,12
2017-10-20T14:34:01.980Z,8
2017-10-20T14:35:10.065Z,8
2017-10-20T14:36:18.180Z,8
2017-10-20T14:37:26.237Z,8
2017-10-20T14:38:34.323Z,4
2017-10-20T14:39:42.416Z,8
2017-10-20T14:40:50.556Z,8
2017-10-20T14:41:58.644Z,8
2017-10-20T14:43:06.728Z,8
2017-10-20T14:44:14.819Z,8
2017-10-20T14:45:22.898Z,8
2017-10-20T14:46:30.988Z,8
2017-10-20T14:47:39.080Z,8
2017-10-20T14:48:47.161Z,8
2017-10-20T14:49:55.243Z,8
2017-10-20T14:51:03.330Z,8
2017-10-20T14:52:11.414Z,8
2017-10-20T14:53:19.501Z,8
2017-10-20T14:54:27.594Z,8
2017-10-20T14:55:35.673Z,12
2017-10-20T14:56:43.757Z,8
2017-10-20T14:57:51.845Z,8
2017-10-20T14:58:59.955Z,12
2017-10-20T15:00:08.029Z,8
2017-10-20T15:01:16.104Z,8
2017-10-20T15:02:24.196Z,8
2017-10-20T15:03:32.491Z,4
2017-10-20T15:04:40.572Z,8
2017-10-20T15:05:48.664Z,8
2017-10-20T15:06:56.745Z,8
2017-10-20T15:08:04.829Z,4
2017-10-20T15:09:12.924Z,8
2017-10-20T15:10:21.008Z,4
2017-10-20T15:11:29.100Z,8
2017-10-20T15:12:37.176Z,8
2017-10-20T15:13:45.261Z,8
2017-10-20T15:14:53.347Z,8
2017-10-20T15:16:01.431Z,8
2017-10-20T15:17:09.515Z,12
2017-10-20T15:18:17.603Z,12
2017-10-20T15:19:25.693Z,12
2017-10-20T15:20:33.775Z,12
2017-10-20T15:21:41.861Z,12
2017-10-20T15:22:49.953Z,8
2017-10-20T15:23:58.033Z,8
2017-10-20T15:25:06.118Z,8
2017-10-20T15:26:14.202Z,8
2017-10-20T15:27:22.289Z,12
2017-10-20T15:28:30.378Z,12
2017-10-20T15:29:38.463Z,8
2017-10-20T15:30:46.849Z,12
2017-10-20T15:31:54.935Z,8
2017-10-20T15:33:03.024Z,8
2017-10-20T15:34:11.116Z,8
2017-10-20T15:35:19.201Z,4
2017-10-20T15:36:27.290Z,8
2017-10-20T15:37:35.376Z,8
2017-10-20T15:38:43.476Z,8
2017-10-20T15:39:51.563Z,4
2017-10-20T15:40:59.649Z,4
2017-10-20T15:42:07.741Z,8
2017-10-20T15:43:15.820Z,4
2017-10-20T15:44:23.910Z,4
2017-10-20T15:45:31.993Z,8
2017-10-20T15:46:40.078Z,4
2017-10-20T15:47:48.166Z,4
2017-10-20T15:48:56.356Z,4
2017-10-20T15:50:04.442Z,4
2017-10-20T15:51:12.532Z,4
2017-10-20T15:52:20.612Z,4
2017-10-20T15:53:29.083Z,4
2017-10-20T15:54:37.079Z,4
2017-10-20T15:55:45.101Z,4
2017-10-20T15:56:52.966Z,0
2017-10-20T15:58:01.051Z,4
2017-10-20T15:59:09.417Z,4
2017-10-20T16:00:17.226Z,0
2017-10-20T16:01:25.313Z,0
2017-10-20T16:02:33.400Z,0
2017-10-20T16:03:41.486Z,0
2017-10-20T16:04:49.590Z,4
2017-10-20T16:05:57.657Z,4
2017-10-20T16:07:05.744Z,4
2017-10-20T16:08:13.829Z,4
2017-10-20T16:09:21.933Z,4
2017-10-20T16:10:30.010Z,4
2017-10-20T16:11:38.083Z,0
2017-10-20T16:12:46.176Z,0
2017-10-20T16:13:54.277Z,0
2017-10-20T16:15:02.353Z,0
2017-10-20T16:16:10.438Z,4
2017-10-20T16:17:18.521Z,4
2017-10-20T16:18:26.608Z,0
2017-10-20T16:19:34.694Z,0
2017-10-20T16:20:42.780Z,0
2017-10-20T16:21:50.870Z,0
2017-10-20T16:22:58.952Z,0
2017-10-20T16:24:07.377Z,0
2017-10-20T16:25:15.463Z,0
2017-10-20T16:26:23.549Z,0
2017-10-20T16:27:31.633Z,0
2017-10-20T16:28:39.745Z,0
2017-10-20T16:29:47.814Z,0
2017-10-20T16:30:55.901Z,0
2017-10-20T16:32:04.004Z,0